Time;durP1;ratioP1;P1;durP2;ratioP2;P2;SDS_P1;SDS_P2;PMS_P1;PMS_P2;Temp;Humidity;BMP_temperature;BMP_pressure;BME280_temperature;BME280_humidity;BME280_pressure;Samples;Min_cycle;Max_cycle;Signal;HPM_P1;HPM_P2
2021/07/19 00:00:13;;;;;;;13.98;7.20;;;16.40;99.90;;;;;;6281628;22;20019;-85
2021/07/19 00:02:41;;;;;;;16.45;8.43;;;16.40;99.90;;;;;;6344013;22;20014;-85
2021/07/19 00:05:11;;;;;;;10.98;7.43;;;16.40;99.90;;;;;;6319470;22;20046;-85
2021/07/19 00:07:40;;;;;;;8.50;7.57;;;16.40;99.90;;;;;;6339380;22;20023;-85
2021/07/19 00:10:10;;;;;;;11.63;7.63;;;16.40;99.90;;;;;;6280816;22;20030;-85
2021/07/19 00:12:38;;;;;;;13.95;9.68;;;16.40;99.90;;;;;;6346716;22;20015;-85
2021/07/19 00:15:09;;;;;;;10.88;7.70;;;16.40;99.90;;;;;;6313993;22;20011;-85
2021/07/19 00:17:37;;;;;;;10.43;7.63;;;16.30;99.90;;;;;;6319403;22;20011;-85
2021/07/19 00:20:06;;;;;;;12.95;7.32;;;16.30;99.90;;;;;;6337623;22;20449;-85
2021/07/19 00:22:34;;;;;;;12.25;9.15;;;16.30;99.90;;;;;;6281873;22;20014;-85
2021/07/19 00:25:05;;;;;;;11.07;6.97;;;16.20;99.90;;;;;;6346715;22;20015;-84
2021/07/19 00:27:33;;;;;;;11.32;6.93;;;16.10;99.90;;;;;;6281692;22;20019;-85
2021/07/19 00:30:01;;;;;;;9.77;6.57;;;16.10;99.90;;;;;;6345788;22;20010;-85
2021/07/19 00:32:29;;;;;;;13.77;7.97;;;16.00;99.90;;;;;;6281604;22;20372;-85
2021/07/19 00:34:56;;;;;;;11.00;8.05;;;16.00;99.90;;;;;;6288921;22;20019;-84
2021/07/19 00:37:26;;;;;;;10.95;6.80;;;16.00;99.90;;;;;;6336319;22;20043;-84
2021/07/19 00:39:54;;;;;;;9.35;6.90;;;16.00;99.90;;;;;;6281208;22;20022;-85
2021/07/19 00:42:22;;;;;;;7.90;6.50;;;16.00;99.90;;;;;;6256376;22;20018;-85
2021/07/19 00:44:50;;;;;;;9.15;7.68;;;16.10;99.90;;;;;;6306187;22;20019;-85
2021/07/19 00:47:18;;;;;;;14.48;7.88;;;16.10;99.90;;;;;;6313180;22;20023;-85
2021/07/19 00:49:47;;;;;;;10.60;7.18;;;16.10;99.90;;;;;;6292686;22;20476;-84
2021/07/19 00:52:14;;;;;;;12.52;7.97;;;16.10;99.90;;;;;;6256132;22;20049;-85
2021/07/19 00:54:44;;;;;;;10.60;7.93;;;16.10;99.90;;;;;;6289914;22;20023;-85
2021/07/19 00:57:14;;;;;;;12.68;7.60;;;16.10;99.90;;;;;;6293570;22;20440;-85
2021/07/19 00:59:44;;;;;;;13.70;7.97;;;16.10;99.90;;;;;;6255298;22;20019;-85
2021/07/19 01:02:14;;;;;;;11.27;8.07;;;16.10;99.90;;;;;;6292312;22;20033;-85
2021/07/19 01:04:42;;;;;;;8.65;7.65;;;16.00;99.90;;;;;;6307365;22;20019;-85
2021/07/19 01:07:11;;;;;;;9.68;7.18;;;16.00;99.90;;;;;;6313608;22;20026;-85
2021/07/19 01:09:39;;;;;;;8.80;6.85;;;16.00;99.90;;;;;;6281942;22;20019;-85
2021/07/19 01:12:08;;;;;;;9.55;7.55;;;16.00;99.90;;;;;;6281125;22;20019;-85
2021/07/19 01:14:42;;;;;;;11.88;6.53;;;15.90;99.90;;;;;;6342240;22;20469;-85
2021/07/19 01:17:11;;;;;;;9.00;7.18;;;15.80;99.90;;;;;;6257665;22;20016;-85
2021/07/19 01:19:44;;;;;;;11.60;7.75;;;15.80;99.90;;;;;;6281568;22;20350;-85
2021/07/19 01:22:11;;;;;;;16.67;7.15;;;15.70;99.90;;;;;;6317802;22;20318;-85
2021/07/19 01:24:53;;;;;;;9.60;7.00;;;15.60;99.90;;;;;;6282102;22;20015;-85
2021/07/19 01:27:26;;;;;;;29.33;8.85;;;15.60;99.90;;;;;;6286980;22;20022;-85
2021/07/19 01:29:57;;;;;;;10.45;7.00;;;15.50;99.90;;;;;;6292311;22;20022;-85
2021/07/19 01:32:25;;;;;;;8.95;6.10;;;15.50;99.90;;;;;;6282544;22;20015;-85
2021/07/19 01:34:58;;;;;;;8.48;6.60;;;15.40;99.90;;;;;;6280426;22;20023;-85
2021/07/19 01:37:27;;;;;;;12.98;8.82;;;15.40;99.90;;;;;;6308063;22;20018;-84
2021/07/19 01:40:10;;;;;;;11.38;8.02;;;15.30;99.90;;;;;;6336685;22;20041;-84
2021/07/19 01:42:40;;;;;;;10.50;6.63;;;15.30;99.90;;;;;;6255705;22;20015;-85
2021/07/19 01:45:10;;;;;;;10.82;6.00;;;15.30;99.90;;;;;;6281331;22;20015;-85
2021/07/19 01:47:40;;;;;;;7.72;6.38;;;15.20;99.90;;;;;;6311711;22;20061;-85
2021/07/19 01:50:10;;;;;;;10.05;6.72;;;15.10;99.90;;;;;;6306356;22;20029;-85
2021/07/19 01:53:15;;;;;;;13.43;6.65;;;15.10;99.90;;;;;;6266417;22;20370;-84
2021/07/19 01:55:44;;;;;;;8.48;6.80;;;14.90;99.90;;;;;;6285228;22;20026;-84
2021/07/19 01:58:13;;;;;;;9.43;6.18;;;14.90;99.90;;;;;;6281403;22;20575;-85
2021/07/19 02:00:53;;;;;;;7.07;6.35;;;14.90;99.90;;;;;;6283696;22;20323;-84
2021/07/19 02:03:22;;;;;;;8.90;6.90;;;14.90;99.90;;;;;;6286984;22;20034;-84
2021/07/19 02:05:56;;;;;;;13.57;6.47;;;14.90;99.90;;;;;;6319925;22;20338;-84
2021/07/19 02:08:24;;;;;;;7.28;5.95;;;14.90;99.90;;;;;;6308533;22;20026;-84
2021/07/19 02:11:10;;;;;;;15.20;6.70;;;14.80;99.90;;;;;;6308259;22;20605;-84
2021/07/19 02:13:42;;;;;;;10.43;7.53;;;14.80;99.90;;;;;;6258315;22;20015;-84
2021/07/19 02:16:13;;;;;;;14.07;8.30;;;14.80;99.90;;;;;;6257292;22;20019;-84
2021/07/19 02:18:45;;;;;;;13.95;9.98;;;14.80;99.90;;;;;;6292261;22;20337;-84
2021/07/19 02:21:19;;;;;;;11.02;7.68;;;14.80;99.90;;;;;;6258696;22;20023;-84
2021/07/19 02:24:23;;;;;;;12.30;8.55;;;14.80;99.90;;;;;;6268373;22;20027;-84
2021/07/19 02:27:17;;;;;;;13.65;8.07;;;14.90;99.90;;;;;;6262779;22;20022;-84
2021/07/19 02:29:47;;;;;;;11.90;9.10;;;15.00;99.90;;;;;;6294169;22;20334;-84
2021/07/19 02:32:17;;;;;;;14.00;7.55;;;15.00;99.90;;;;;;6257948;22;20022;-85
2021/07/19 02:34:49;;;;;;;13.13;7.78;;;15.10;99.90;;;;;;6283011;22;20338;-84
2021/07/19 02:37:22;;;;;;;15.23;8.18;;;15.10;99.90;;;;;;6284033;22;20018;-84
2021/07/19 02:40:16;;;;;;;10.48;6.78;;;15.20;99.90;;;;;;6313841;22;20023;-84
2021/07/19 02:42:48;;;;;;;12.95;7.50;;;15.20;99.90;;;;;;6316851;22;20480;-84
2021/07/19 02:45:19;;;;;;;15.98;9.70;;;15.20;99.90;;;;;;6319869;22;20011;-84
2021/07/19 02:47:53;;;;;;;11.40;8.02;;;15.20;99.90;;;;;;6258900;22;20026;-84
2021/07/19 02:50:28;;;;;;;11.68;8.70;;;15.30;99.90;;;;;;6317421;22;20423;-84
2021/07/19 02:52:58;;;;;;;9.02;7.75;;;15.30;99.90;;;;;;6320781;22;20026;-84
2021/07/19 02:55:30;;;;;;;12.15;6.38;;;15.20;99.90;;;;;;6257850;22;20026;-84
2021/07/19 02:58:03;;;;;;;10.27;6.70;;;15.30;99.90;;;;;;6294698;22;20007;-84
2021/07/19 03:00:33;;;;;;;9.63;7.78;;;15.30;99.90;;;;;;6255816;22;20030;-84
2021/07/19 03:03:07;;;;;;;11.87;6.63;;;15.30;99.90;;;;;;6281151;22;20018;-85
2021/07/19 03:05:43;;;;;;;12.20;7.97;;;15.30;99.90;;;;;;6283994;22;20022;-84
2021/07/19 03:08:18;;;;;;;10.73;6.85;;;15.30;99.90;;;;;;6308175;22;20018;-84
2021/07/19 03:11:08;;;;;;;8.20;6.22;;;15.20;99.90;;;;;;6281977;22;20026;-84
2021/07/19 03:13:38;;;;;;;15.32;8.35;;;15.20;99.90;;;;;;6257190;22;20334;-84
2021/07/19 03:16:10;;;;;;;15.43;7.18;;;15.20;99.90;;;;;;6257167;22;20659;-84
2021/07/19 03:18:40;;;;;;;9.90;7.25;;;15.20;99.90;;;;;;6257971;22;20018;-84
2021/07/19 03:21:09;;;;;;;9.30;6.53;;;15.20;99.90;;;;;;6257261;22;20022;-85
2021/07/19 03:23:41;;;;;;;10.18;7.60;;;15.20;99.90;;;;;;6257417;22;20022;-84
2021/07/19 03:26:11;;;;;;;23.33;8.50;;;15.10;99.90;;;;;;6293828;22;20026;-84
2021/07/19 03:28:42;;;;;;;10.95;7.10;;;15.10;99.90;;;;;;6282725;22;20445;-84
2021/07/19 03:31:10;;;;;;;14.45;7.93;;;15.10;99.90;;;;;;6256028;22;20029;-84
2021/07/19 03:33:43;;;;;;;12.98;9.73;;;15.10;99.90;;;;;;6282888;22;20015;-84
2021/07/19 03:36:14;;;;;;;9.90;7.80;;;15.10;99.90;;;;;;6284491;22;20023;-84
2021/07/19 03:38:45;;;;;;;12.32;7.97;;;15.00;99.90;;;;;;6316406;22;20034;-84
2021/07/19 03:41:33;;;;;;;8.70;7.65;;;15.00;99.90;;;;;;6323828;22;20346;-84
2021/07/19 03:44:08;;;;;;;12.30;8.88;;;14.90;99.90;;;;;;6257398;22;20027;-84
2021/07/19 03:46:40;;;;;;;11.43;6.83;;;14.90;99.90;;;;;;6307196;22;20764;-84
2021/07/19 03:49:12;;;;;;;10.32;7.72;;;14.80;99.90;;;;;;6294034;22;20245;-84
2021/07/19 03:51:43;;;;;;;10.43;7.50;;;14.80;99.90;;;;;;6286401;22;20366;-85
2021/07/19 03:54:11;;;;;;;12.90;8.10;;;14.90;99.90;;;;;;6318589;22;20308;-85
2021/07/19 03:56:40;;;;;;;9.52;7.10;;;15.00;99.90;;;;;;6283032;22;20422;-84
2021/07/19 03:59:12;;;;;;;11.18;8.80;;;15.00;99.90;;;;;;6313784;22;20469;-84
2021/07/19 04:01:42;;;;;;;23.70;10.00;;;15.00;99.90;;;;;;6257035;22;20022;-85
2021/07/19 04:04:17;;;;;;;14.07;7.47;;;15.00;99.90;;;;;;6257651;22;20323;-84
2021/07/19 04:06:51;;;;;;;17.43;8.00;;;15.10;99.90;;;;;;6258153;22;20026;-84
2021/07/19 04:09:21;;;;;;;36.67;9.43;;;15.10;99.90;;;;;;6319055;22;20015;-84
2021/07/19 04:11:51;;;;;;;11.20;8.85;;;15.10;99.90;;;;;;6310505;22;20030;-85
2021/07/19 04:14:22;;;;;;;8.63;7.40;;;15.20;99.90;;;;;;6280894;22;20023;-84
2021/07/19 04:16:52;;;;;;;13.00;8.48;;;15.30;99.90;;;;;;6257081;22;20037;-84
2021/07/19 04:19:25;;;;;;;10.55;7.18;;;15.30;99.90;;;;;;6282739;22;20426;-85
2021/07/19 04:21:53;;;;;;;18.48;7.32;;;15.30;99.90;;;;;;6282710;22;20311;-84
2021/07/19 04:24:35;;;;;;;10.98;7.35;;;15.30;99.90;;;;;;6280237;22;20031;-85
2021/07/19 04:27:04;;;;;;;11.35;7.00;;;15.40;99.90;;;;;;6314280;22;20366;-84
2021/07/19 04:29:33;;;;;;;11.25;7.57;;;15.40;99.90;;;;;;6256340;22;20440;-84
2021/07/19 04:32:04;;;;;;;9.05;6.90;;;15.50;99.90;;;;;;6309520;22;20027;-85
2021/07/19 04:34:36;;;;;;;14.63;8.38;;;15.50;99.90;;;;;;6317062;22;20019;-84
2021/07/19 04:37:09;;;;;;;11.13;6.85;;;15.50;99.90;;;;;;6313104;22;20015;-85
2021/07/19 04:39:49;;;;;;;11.18;7.03;;;15.50;99.90;;;;;;6311035;22;20346;-84
2021/07/19 04:42:25;;;;;;;10.98;6.35;;;15.60;99.90;;;;;;6316918;22;20021;-84
2021/07/19 04:44:53;;;;;;;8.40;5.60;;;15.50;99.90;;;;;;6306768;22;20029;-84
2021/07/19 04:47:21;;;;;;;10.02;5.53;;;15.40;99.90;;;;;;6306346;22;20035;-85
2021/07/19 04:49:48;;;;;;;7.35;5.57;;;15.40;99.90;;;;;;6319583;22;20014;-87
2021/07/19 04:52:16;;;;;;;8.13;7.32;;;15.40;99.90;;;;;;6308907;22;20049;-85
2021/07/19 04:54:55;;;;;;;11.27;9.45;;;15.40;99.90;;;;;;6307487;22;20022;-87
2021/07/19 04:57:31;;;;;;;10.02;7.80;;;15.50;99.90;;;;;;6260749;22;20014;-89
2021/07/19 05:00:02;;;;;;;7.75;6.65;;;15.50;99.90;;;;;;6257936;22;20033;-91
2021/07/19 05:02:36;;;;;;;10.98;7.97;;;15.60;99.90;;;;;;6257423;22;20021;-85
2021/07/19 05:05:22;;;;;;;16.52;9.15;;;15.70;99.90;;;;;;6263117;22;20034;-86
2021/07/19 05:08:20;;;;;;;13.75;9.00;;;15.90;99.90;;;;;;6281019;22;20034;-86
2021/07/19 05:14:42;;;;;;;11.38;6.80;;;16.20;99.90;;;;;;6157003;23;20016;-84
2021/07/19 05:17:15;;;;;;;13.38;8.10;;;16.40;99.90;;;;;;6134966;23;20763;-87
2021/07/19 05:20:34;;;;;;;;;;;;;;;;;;;;;
2021/07/19 05:23:36;;;;;;;11.27;7.35;;;16.60;99.90;;;;;;6186714;23;20025;-87
2021/07/19 05:26:07;;;;;;;13.80;6.55;;;16.70;99.90;;;;;;6219318;23;20023;-86
2021/07/19 05:28:39;;;;;;;10.00;7.85;;;16.80;99.90;;;;;;6151899;23;20024;-88
2021/07/19 05:31:10;;;;;;;9.23;6.00;;;16.90;99.90;;;;;;6158321;23;20027;-85
2021/07/19 05:33:38;;;;;;;9.70;7.18;;;16.90;99.90;;;;;;6162328;23;20017;-86
2021/07/19 05:36:05;;;;;;;14.63;6.82;;;17.00;99.90;;;;;;6158411;23;20449;-85
2021/07/19 05:38:33;;;;;;;11.30;7.05;;;17.00;99.90;;;;;;6302493;22;20125;-85
2021/07/19 05:41:02;;;;;;;9.40;7.57;;;17.10;99.90;;;;;;6283186;22;20015;-85
2021/07/19 05:43:30;;;;;;;12.27;7.00;;;17.10;99.90;;;;;;6313601;22;20023;-86
2021/07/19 05:45:57;;;;;;;8.65;7.57;;;17.10;99.90;;;;;;6258478;22;20026;-86
2021/07/19 05:48:25;;;;;;;8.73;6.80;;;17.10;99.90;;;;;;6310423;22;20023;-85
2021/07/19 05:50:53;;;;;;;16.17;7.47;;;17.10;99.90;;;;;;6257183;22;20026;-85
2021/07/19 05:53:21;;;;;;;10.13;7.50;;;17.10;99.90;;;;;;6294924;22;20015;-86
2021/07/19 05:55:49;;;;;;;11.95;9.80;;;17.20;99.90;;;;;;6256384;22;20049;-86
2021/07/19 05:58:18;;;;;;;11.00;8.90;;;17.30;99.90;;;;;;6309470;22;20026;-86
2021/07/19 06:00:46;;;;;;;10.38;6.47;;;17.20;99.90;;;;;;6283364;22;20438;-88
2021/07/19 06:03:14;;;;;;;9.10;6.93;;;17.30;99.90;;;;;;6282578;22;20019;-87
2021/07/19 06:05:42;;;;;;;11.48;7.80;;;17.30;99.90;;;;;;6308790;22;20022;-87
2021/07/19 06:08:10;;;;;;;9.52;7.25;;;17.40;99.90;;;;;;6283305;22;20740;-86
2021/07/19 06:10:38;;;;;;;8.68;7.05;;;17.40;99.90;;;;;;6344476;22;20018;-87
2021/07/19 06:13:06;;;;;;;13.23;9.15;;;17.40;99.90;;;;;;6294951;22;20326;-88
2021/07/19 06:15:33;;;;;;;9.82;7.65;;;17.50;99.90;;;;;;6256996;22;20026;-88
2021/07/19 06:18:02;;;;;;;10.07;6.53;;;17.50;99.90;;;;;;6258530;22;20242;-87
2021/07/19 06:20:30;;;;;;;9.85;7.55;;;17.60;99.90;;;;;;6257911;22;20019;-87
2021/07/19 06:23:02;;;;;;;7.63;6.22;;;17.70;99.90;;;;;;6283848;22;20018;-86
2021/07/19 06:25:35;;;;;;;7.70;6.75;;;17.80;99.90;;;;;;6320396;22;20033;-87
2021/07/19 06:28:05;;;;;;;8.27;6.78;;;17.80;99.90;;;;;;6286267;22;20019;-88
2021/07/19 06:30:33;;;;;;;11.23;7.80;;;17.80;99.90;;;;;;6317148;22;20109;-87
2021/07/19 06:33:02;;;;;;;15.85;7.53;;;18.00;99.90;;;;;;6283173;22;20019;-86
2021/07/19 06:35:30;;;;;;;11.05;6.25;;;18.00;99.90;;;;;;6313527;22;20027;-86
2021/07/19 06:37:58;;;;;;;7.68;6.18;;;18.30;99.90;;;;;;6311256;22;20034;-87
2021/07/19 06:40:26;;;;;;;9.13;6.20;;;18.30;99.90;;;;;;6309012;22;20026;-87
2021/07/19 06:42:54;;;;;;;7.22;6.00;;;18.30;99.90;;;;;;6316161;22;20346;-87
2021/07/19 06:45:21;;;;;;;6.68;6.07;;;18.40;99.90;;;;;;6258373;22;20029;-87
2021/07/19 06:47:49;;;;;;;11.35;7.28;;;18.50;99.90;;;;;;6257402;22;20045;-87
2021/07/19 06:50:17;;;;;;;10.18;5.72;;;18.50;99.90;;;;;;6319027;22;20325;-87
2021/07/19 06:52:48;;;;;;;8.25;6.57;;;18.70;99.90;;;;;;6287992;22;20014;-87
2021/07/19 06:55:16;;;;;;;8.00;5.78;;;18.70;99.90;;;;;;6341791;22;20031;-87
2021/07/19 06:57:44;;;;;;;8.20;5.88;;;18.80;99.90;;;;;;6347590;22;20006;-87
2021/07/19 07:00:12;;;;;;;14.45;6.60;;;18.90;99.90;;;;;;6309598;22;20010;-86
2021/07/19 07:02:40;;;;;;;7.70;6.88;;;19.00;99.90;;;;;;6290947;22;20019;-87
2021/07/19 07:05:08;;;;;;;7.13;5.32;;;19.10;99.90;;;;;;6284082;22;20023;-87
2021/07/19 07:07:36;;;;;;;9.82;6.53;;;19.10;99.90;;;;;;6313283;22;20030;-87
2021/07/19 07:10:06;;;;;;;8.85;5.93;;;19.10;99.90;;;;;;6282305;22;20018;-87
2021/07/19 07:12:34;;;;;;;8.50;5.88;;;19.30;99.90;;;;;;6281721;22;20034;-87
2021/07/19 07:15:03;;;;;;;6.80;5.35;;;19.60;99.90;;;;;;6289238;22;20019;-87
2021/07/19 07:17:31;;;;;;;9.88;6.22;;;19.80;99.90;;;;;;6258063;22;20444;-87
2021/07/19 07:19:59;;;;;;;8.20;5.78;;;19.70;99.90;;;;;;6282590;22;20030;-87
2021/07/19 07:22:29;;;;;;;;;;;19.70;99.90;;;;;;6258009;22;20011;-86
2021/07/19 07:24:57;;;;;;;6.95;5.70;;;20.00;99.90;;;;;;6294006;22;19915;-87
2021/07/19 07:27:25;;;;;;;7.30;5.80;;;20.30;99.90;;;;;;6282496;22;20057;-87
2021/07/19 07:29:53;;;;;;;9.23;6.97;;;20.40;99.90;;;;;;6293231;22;20019;-87
2021/07/19 07:32:20;;;;;;;6.50;5.15;;;21.00;99.90;;;;;;6308133;22;20030;-88
2021/07/19 07:34:48;;;;;;;10.20;5.13;;;21.50;99.90;;;;;;6316280;22;20025;-87
2021/07/19 07:37:16;;;;;;;8.90;4.95;;;21.50;99.90;;;;;;6307986;22;20023;-88
2021/07/19 07:39:45;;;;;;;10.25;6.13;;;21.90;99.90;;;;;;6256894;22;20484;-88
2021/07/19 07:42:14;;;;;;;13.13;4.60;;;22.10;99.90;;;;;;6256413;22;20018;-88
2021/07/19 07:44:42;;;;;;;5.55;4.80;;;22.30;99.90;;;;;;6256786;22;20026;-87
2021/07/19 07:47:10;;;;;;;9.40;6.05;;;22.40;99.90;;;;;;6282904;22;20022;-87
2021/07/19 07:49:39;;;;;;;6.70;4.82;;;22.50;99.90;;;;;;6293806;22;20728;-88
2021/07/19 07:52:09;;;;;;;5.75;4.28;;;22.20;99.90;;;;;;6256730;22;20023;-88
2021/07/19 07:54:38;;;;;;;4.55;3.85;;;22.00;99.90;;;;;;6306787;22;20026;-88
2021/07/19 07:57:08;;;;;;;4.35;3.90;;;21.60;99.90;;;;;;6294501;22;20018;-87
2021/07/19 07:59:37;;;;;;;6.55;3.65;;;21.50;99.90;;;;;;6281526;22;20019;-87
2021/07/19 08:02:05;;;;;;;4.72;4.32;;;21.60;99.90;;;;;;6257889;22;20041;-87
2021/07/19 08:04:34;;;;;;;4.40;3.92;;;21.60;99.90;;;;;;6282126;22;20015;-87
2021/07/19 08:07:03;;;;;;;11.52;4.70;;;21.90;99.90;;;;;;6257102;22;20026;-87
2021/07/19 08:09:33;;;;;;;5.10;4.38;;;22.00;99.90;;;;;;6283329;22;20015;-88
2021/07/19 08:12:01;;;;;;;4.82;3.97;;;22.20;99.90;;;;;;6310927;22;20454;-88
2021/07/19 08:14:44;;;;;;;7.88;5.38;;;22.30;99.90;;;;;;6282169;22;20019;-88
2021/07/19 08:17:14;;;;;;;6.80;5.43;;;22.10;99.90;;;;;;6283607;22;20019;-87
2021/07/19 08:19:42;;;;;;;8.60;5.75;;;22.40;99.90;;;;;;6247079;22;20023;-88
2021/07/19 08:22:13;;;;;;;6.28;5.07;;;22.60;99.90;;;;;;6251214;22;20454;-88
2021/07/19 08:24:47;;;;;;;8.23;4.55;;;22.70;99.90;;;;;;6282485;22;20338;-87
2021/07/19 08:27:15;;;;;;;8.45;5.80;;;22.70;99.90;;;;;;6288318;22;20018;-87
2021/07/19 08:29:49;;;;;;;5.65;5.05;;;22.80;99.90;;;;;;6307708;22;20022;-87
2021/07/19 08:32:17;;;;;;;8.15;5.55;;;22.60;99.90;;;;;;6281140;22;20026;-87
2021/07/19 08:34:50;;;;;;;6.13;5.53;;;22.20;99.90;;;;;;6290881;22;20015;-87
2021/07/19 08:37:18;;;;;;;10.38;6.65;;;21.90;99.90;;;;;;6313403;22;20033;-86
2021/07/19 08:39:46;;;;;;;7.65;5.82;;;21.70;99.90;;;;;;6256603;22;20029;-88
2021/07/19 08:42:14;;;;;;;6.38;5.43;;;21.90;99.90;;;;;;6291059;22;20023;-87
2021/07/19 08:44:42;;;;;;;8.73;5.72;;;22.00;99.90;;;;;;6292493;22;20430;-88
2021/07/19 08:47:18;;;;;;;8.93;5.75;;;21.70;99.90;;;;;;6314314;22;20015;-88
2021/07/19 08:49:46;;;;;;;5.53;4.97;;;21.60;99.90;;;;;;6256725;22;20018;-87
2021/07/19 08:52:20;;;;;;;8.40;6.18;;;21.60;99.90;;;;;;6280994;22;20023;-87
2021/07/19 08:54:49;;;;;;;5.75;5.20;;;21.50;99.90;;;;;;6256257;22;20018;-88
2021/07/19 08:57:21;;;;;;;9.25;4.80;;;21.60;99.90;;;;;;6283342;22;20057;-87
2021/07/19 08:59:52;;;;;;;5.97;4.30;;;21.80;99.90;;;;;;6227509;22;20031;-88
2021/07/19 09:02:35;;;;;;;4.85;3.97;;;21.90;99.90;;;;;;6189875;23;20035;-88
2021/07/19 09:06:13;;;;;;;14.85;5.70;;;22.10;99.90;;;;;;6190047;23;20027;-90
2021/07/19 09:09:05;;;;;;;8.15;5.13;;;22.30;99.90;;;;;;6077551;23;20030;-88
2021/07/19 09:11:49;;;;;;;10.15;5.40;;;22.10;99.90;;;;;;6148764;23;20021;-88
2021/07/19 09:14:30;;;;;;;;;;;22.30;99.90;;;;;;6212074;22;20032;-87
2021/07/19 09:17:02;;;;;;;4.72;4.25;;;22.60;99.90;;;;;;6226244;23;19916;-87
2021/07/19 09:19:31;;;;;;;5.50;4.97;;;22.70;99.90;;;;;;6188943;23;20032;-88
2021/07/19 09:22:02;;;;;;;5.00;4.18;;;22.70;99.90;;;;;;6188541;23;20020;-88
2021/07/19 09:24:36;;;;;;;12.65;5.00;;;22.90;99.90;;;;;;6188772;23;20024;-88
2021/07/19 09:27:34;;;;;;;4.82;4.13;;;22.90;99.90;;;;;;6188742;23;20016;-89
2021/07/19 09:30:14;;;;;;;4.82;3.08;;;22.80;99.90;;;;;;6189243;23;20024;-87
2021/07/19 09:32:58;;;;;;;7.32;4.05;;;22.80;99.90;;;;;;6225629;22;20347;-87
2021/07/19 09:35:28;;;;;;;5.93;3.75;;;22.80;99.90;;;;;;6268183;22;20027;-89
2021/07/19 09:38:05;;;;;;;4.22;3.83;;;22.60;99.90;;;;;;6282570;22;20035;-90
2021/07/19 09:40:39;;;;;;;7.38;3.70;;;22.30;99.90;;;;;;6281520;22;20026;-89
2021/07/19 09:43:13;;;;;;;;;;;21.80;99.90;;;;;;6281782;22;20014;-89
2021/07/19 09:45:41;;;;;;;6.13;5.13;;;21.50;99.90;;;;;;6255784;22;19914;-90
2021/07/19 09:48:10;;;;;;;7.88;5.15;;;21.30;99.90;;;;;;6256202;22;20019;-89
2021/07/19 09:50:53;;;;;;;5.55;4.05;;;21.10;99.90;;;;;;6255404;22;20015;-88
2021/07/19 09:53:49;;;;;;;5.68;4.70;;;21.10;99.90;;;;;;6281921;22;20022;-88
2021/07/19 09:56:20;;;;;;;4.55;4.15;;;21.00;99.90;;;;;;6308896;22;20027;-89
2021/07/19 09:58:51;;;;;;;;;;;21.00;99.90;;;;;;6256784;22;20021;-89
2021/07/19 10:01:27;;;;;;;4.97;4.10;;;21.10;99.90;;;;;;6345568;22;19918;-89
2021/07/19 10:04:15;;;;;;;9.05;6.57;;;21.40;99.90;;;;;;6310378;22;20023;-89
2021/07/19 10:06:45;;;;;;;4.03;3.72;;;21.30;99.90;;;;;;6315874;22;20041;-89
2021/07/19 10:09:14;;;;;;;6.28;5.40;;;21.40;99.90;;;;;;6282231;22;20461;-89
2021/07/19 10:11:54;;;;;;;8.52;3.72;;;21.60;99.90;;;;;;6338739;22;20023;-88
2021/07/19 10:14:30;;;;;;;4.40;3.97;;;21.90;99.90;;;;;;6255375;22;20563;-90
2021/07/19 10:17:24;;;;;;;9.45;3.80;;;22.20;99.90;;;;;;6281949;22;20021;-90
2021/07/19 10:19:56;;;;;;;3.88;3.47;;;22.40;99.90;;;;;;6282093;22;20015;-88
2021/07/19 10:22:24;;;;;;;9.30;4.07;;;22.60;99.90;;;;;;6256468;22;20030;-89
2021/07/19 10:24:53;;;;;;;5.65;5.03;;;22.60;99.90;;;;;;6318270;22;20021;-89
2021/07/19 10:27:26;;;;;;;4.20;3.63;;;22.70;99.90;;;;;;6314805;22;20018;-89
2021/07/19 10:29:55;;;;;;;6.28;3.55;;;22.70;99.90;;;;;;6258108;22;20019;-88
2021/07/19 10:32:24;;;;;;;4.05;3.60;;;22.60;99.90;;;;;;6285796;22;20026;-89
2021/07/19 10:34:54;;;;;;;6.20;4.32;;;22.70;99.90;;;;;;6291589;22;20453;-87
2021/07/19 10:37:50;;;;;;;8.75;3.28;;;22.80;99.90;;;;;;6309311;22;20034;-88
2021/07/19 10:40:55;;;;;;;6.50;4.20;;;22.90;99.90;;;;;;6229362;22;20037;-89
2021/07/19 10:43:30;;;;;;;2.67;2.45;;;23.20;99.90;;;;;;6284538;22;20117;-89
2021/07/19 10:46:11;;;;;;;5.72;2.70;;;23.20;99.90;;;;;;6283599;22;20011;-89
2021/07/19 10:48:41;;;;;;;4.05;3.10;;;23.00;99.90;;;;;;6282884;22;20018;-87
2021/07/19 10:51:21;;;;;;;5.57;3.15;;;22.90;99.90;;;;;;6281590;22;20338;-90
2021/07/19 10:53:49;;;;;;;3.72;2.78;;;22.80;99.90;;;;;;6284233;22;20653;-90
2021/07/19 10:56:29;;;;;;;6.60;3.63;;;22.70;99.90;;;;;;6257669;22;20018;-89
2021/07/19 10:58:56;;;;;;;3.37;3.03;;;22.70;99.90;;;;;;6257418;22;20015;-87
2021/07/19 11:01:26;;;;;;;11.27;2.92;;;22.80;99.90;;;;;;6258363;22;20430;-87
2021/07/19 11:03:57;;;;;;;3.55;2.80;;;22.90;99.90;;;;;;6313159;22;20023;-87
2021/07/19 11:06:36;;;;;;;2.80;2.55;;;22.80;99.90;;;;;;6318823;22;20018;-87
2021/07/19 11:09:06;;;;;;;5.15;4.13;;;22.70;99.90;;;;;;6321369;22;20038;-87
2021/07/19 11:11:36;;;;;;;6.40;2.78;;;22.70;99.90;;;;;;6288908;22;20041;-87
2021/07/19 11:14:16;;;;;;;4.80;3.58;;;22.90;99.90;;;;;;6320634;22;20307;-87
2021/07/19 11:16:50;;;;;;;3.25;2.63;;;23.10;99.90;;;;;;6319225;22;20082;-87
2021/07/19 11:19:36;;;;;;;8.85;3.28;;;23.20;99.90;;;;;;6257701;22;20453;-88
2021/07/19 11:22:11;;;;;;;8.02;3.35;;;23.40;99.90;;;;;;6258828;22;20011;-86
2021/07/19 11:24:41;;;;;;;5.30;2.85;;;23.40;99.90;;;;;;6282106;22;20034;-86
2021/07/19 11:27:17;;;;;;;3.83;2.33;;;23.40;99.90;;;;;;6306250;22;20029;-88
2021/07/19 11:30:01;;;;;;;2.67;2.47;;;23.20;99.90;;;;;;6257940;22;20011;-84
2021/07/19 11:32:34;;;;;;;6.07;3.97;;;23.50;99.90;;;;;;6335796;22;20018;-84
2021/07/19 11:35:17;;;;;;;9.38;3.53;;;23.60;99.90;;;;;;6287828;22;20346;-83
2021/07/19 11:37:48;;;;;;;5.32;2.88;;;23.50;99.90;;;;;;6304411;22;20027;-87
2021/07/19 11:40:38;;;;;;;4.47;3.25;;;23.40;99.90;;;;;;6283542;22;20027;-87
2021/07/19 11:43:19;;;;;;;5.32;3.42;;;23.30;99.90;;;;;;6289057;22;20037;-86
2021/07/19 11:46:28;;;;;;;;;;;;;;;;;;;;;
2021/07/19 11:50:05;;;;;;;4.28;2.88;;;23.50;99.90;;;;;;6261476;22;20023;-85
2021/07/19 11:52:33;;;;;;;2.75;2.33;;;23.60;99.90;;;;;;6335132;22;20026;-85
2021/07/19 11:55:02;;;;;;;4.05;2.45;;;23.50;99.90;;;;;;6313242;22;20023;-85
2021/07/19 11:57:40;;;;;;;7.95;2.30;;;23.40;99.90;;;;;;6346698;22;20015;-85
2021/07/19 12:00:09;;;;;;;4.80;3.42;;;23.40;99.90;;;;;;6308845;22;20019;-86
2021/07/19 12:02:38;;;;;;;4.07;2.30;;;23.50;99.90;;;;;;6282716;22;20022;-85
2021/07/19 12:05:15;;;;;;;3.58;2.85;;;23.50;99.90;;;;;;6320039;22;20011;-83
2021/07/19 12:07:42;;;;;;;3.22;2.70;;;23.50;99.90;;;;;;6340111;22;20023;-87
2021/07/19 12:10:11;;;;;;;5.88;2.35;;;23.50;99.90;;;;;;6318177;22;20026;-85
2021/07/19 12:12:43;;;;;;;7.05;2.55;;;23.20;99.90;;;;;;6319363;22;20026;-86
2021/07/19 12:15:16;;;;;;;2.97;2.72;;;22.80;99.90;;;;;;6287216;22;20029;-88
2021/07/19 12:17:45;;;;;;;5.38;2.20;;;22.70;99.90;;;;;;6294440;22;20018;-86
2021/07/19 12:20:13;;;;;;;5.20;3.40;;;22.90;99.90;;;;;;6283749;22;20011;-86
2021/07/19 12:22:42;;;;;;;2.75;1.98;;;23.20;99.90;;;;;;6282186;22;20018;-86
2021/07/19 12:25:11;;;;;;;3.67;2.07;;;23.30;99.90;;;;;;6282506;22;20323;-86
2021/07/19 12:27:38;;;;;;;5.13;2.60;;;23.40;99.90;;;;;;6257115;22;20041;-86
2021/07/19 12:30:07;;;;;;;2.30;2.13;;;23.50;99.90;;;;;;6318870;22;20021;-86
2021/07/19 12:32:35;;;;;;;4.57;2.70;;;23.60;99.90;;;;;;6335686;22;20033;-87
2021/07/19 12:35:07;;;;;;;6.03;2.97;;;23.70;99.90;;;;;;6282497;22;20333;-86
2021/07/19 12:37:35;;;;;;;10.07;2.65;;;23.70;99.90;;;;;;6311929;22;20014;-86
2021/07/19 12:40:05;;;;;;;6.50;2.00;;;23.40;99.90;;;;;;6309930;22;20033;-85
2021/07/19 12:42:33;;;;;;;4.15;2.75;;;23.10;99.90;;;;;;6344279;22;20015;-86
2021/07/19 12:45:05;;;;;;;2.38;2.17;;;23.00;99.90;;;;;;6318870;22;20026;-86
2021/07/19 12:47:34;;;;;;;2.88;2.60;;;22.90;99.90;;;;;;6340668;22;20030;-88
2021/07/19 12:50:05;;;;;;;4.50;1.63;;;22.70;99.90;;;;;;6319403;22;20015;-88
2021/07/19 12:52:34;;;;;;;4.47;1.67;;;22.60;99.90;;;;;;6281468;22;20034;-88
2021/07/19 12:55:23;;;;;;;3.65;3.05;;;22.50;99.90;;;;;;6284722;22;20026;-84
2021/07/19 12:57:53;;;;;;;3.00;2.45;;;22.60;99.90;;;;;;6293389;22;20022;-86
2021/07/19 13:00:26;;;;;;;3.92;2.15;;;23.10;99.90;;;;;;6255669;22;20019;-84
2021/07/19 13:03:03;;;;;;;2.05;1.75;;;23.50;99.90;;;;;;6306587;22;20073;-84
2021/07/19 13:05:32;;;;;;;5.55;3.22;;;23.80;99.90;;;;;;6319474;22;20022;-84
2021/07/19 13:08:01;;;;;;;4.18;2.15;;;23.90;99.90;;;;;;6256323;22;20030;-85
2021/07/19 13:10:30;;;;;;;7.28;1.83;;;24.00;99.90;;;;;;6256242;22;20022;-84
2021/07/19 13:13:00;;;;;;;6.68;2.13;;;24.30;99.90;;;;;;6255929;22;20019;-84
2021/07/19 13:15:29;;;;;;;;;;;24.40;99.90;;;;;;6286123;22;20018;-84
2021/07/19 13:18:14;;;;;;;3.50;2.28;;;24.40;99.90;;;;;;6257152;22;20210;-84